createdAt,value
2019-02-08T00:01:27.525Z,79.57
2019-02-08T00:03:57.170Z,79.57
2019-02-08T00:06:28.270Z,79.79
2019-02-08T00:08:58.025Z,79.80
2019-02-08T00:11:28.008Z,79.74
2019-02-08T00:13:57.824Z,79.39
2019-02-08T00:16:28.061Z,79.41
2019-02-08T00:18:57.898Z,79.29
2019-02-08T00:21:27.681Z,79.21
2019-02-08T00:23:57.459Z,78.86
2019-02-08T00:26:27.299Z,79.03
2019-02-08T00:28:57.103Z,79.19
2019-02-08T00:31:27.480Z,78.98
2019-02-08T00:33:57.279Z,79.06
2019-02-08T00:36:27.075Z,79.35
2019-02-08T00:38:56.815Z,79.18
2019-02-08T00:41:26.676Z,79.27
2019-02-08T00:43:56.788Z,79.68
2019-02-08T00:46:29.182Z,79.97
2019-02-08T00:48:58.977Z,80.08
2019-02-08T00:51:28.773Z,80.02
2019-02-08T00:53:58.582Z,80.38
2019-02-08T00:56:28.555Z,80.34
2019-02-08T00:58:58.270Z,79.71
2019-02-08T01:01:28.458Z,80.06
2019-02-08T01:03:58.425Z,80.09
2019-02-08T01:06:28.875Z,80.04
2019-02-08T01:08:58.761Z,79.90
2019-02-08T01:11:28.606Z,80.08
2019-02-08T01:13:58.547Z,80.46
2019-02-08T01:16:28.676Z,80.86
2019-02-08T01:18:59.569Z,80.13
2019-02-08T01:21:29.321Z,80.34
2019-02-08T01:23:59.336Z,80.17
2019-02-08T01:26:29.098Z,79.97
2019-02-08T01:28:58.904Z,80.13
2019-02-08T01:31:28.688Z,80.17
2019-02-08T01:33:59.355Z,79.50
2019-02-08T01:36:29.137Z,79.71
2019-02-08T01:38:58.898Z,79.67
2019-02-08T01:41:29.730Z,79.94
2019-02-08T01:43:59.484Z,79.81
2019-02-08T01:46:29.552Z,80.08
2019-02-08T01:48:59.345Z,80.29
2019-02-08T01:51:29.127Z,80.39
2019-02-08T01:53:58.925Z,81.32
2019-02-08T01:56:28.682Z,81.29
2019-02-08T01:58:59.678Z,80.41
2019-02-08T02:01:29.448Z,79.96
2019-02-08T02:03:59.212Z,80.25
2019-02-08T02:06:48.631Z,80.32
2019-02-08T02:09:18.518Z,80.42
2019-02-08T02:11:50.303Z,80.69
2019-02-08T02:14:22.618Z,80.67
2019-02-08T02:16:52.694Z,81.08
2019-02-08T02:19:22.476Z,80.55
2019-02-08T02:21:54.605Z,80.03
2019-02-08T02:24:33.528Z,79.95
2019-02-08T02:27:54.336Z,80.09
2019-02-08T02:30:51.382Z,79.94
2019-02-08T02:33:25.969Z,80.36
2019-02-08T02:35:57.633Z,80.20
2019-02-08T02:38:27.432Z,80.47
2019-02-08T02:40:58.048Z,80.41
2019-02-08T02:43:27.841Z,80.28
2019-02-08T02:45:57.719Z,80.47
2019-02-08T02:48:27.788Z,80.47
2019-02-08T02:50:57.883Z,80.40
2019-02-08T02:53:27.690Z,80.23
2019-02-08T02:55:57.813Z,80.11
2019-02-08T02:58:27.632Z,80.25
2019-02-08T03:00:58.280Z,80.32
2019-02-08T03:03:28.083Z,80.10
2019-02-08T03:05:57.887Z,79.88
2019-02-08T03:08:27.640Z,80.02
2019-02-08T03:11:04.466Z,80.25
2019-02-08T03:13:34.490Z,80.22
2019-02-08T03:16:10.917Z,80.21
2019-02-08T03:18:45.657Z,80.29
2019-02-08T03:21:15.409Z,80.14
2019-02-08T03:23:49.052Z,80.10
2019-02-08T03:26:19.701Z,80.31
2019-02-08T03:28:51.253Z,80.42
2019-02-08T03:31:37.926Z,80.31
2019-02-08T03:37:14.753Z,80.26
2019-02-08T03:39:45.461Z,80.54
2019-02-08T03:42:16.086Z,80.55
2019-02-08T03:44:50.066Z,80.24
2019-02-08T03:47:21.488Z,80.14
2019-02-08T03:49:54.580Z,80.23
2019-02-08T03:52:27.157Z,80.35
2019-02-08T03:54:57.642Z,80.34
2019-02-08T03:57:27.421Z,80.10
2019-02-08T04:00:12.573Z,80.32
2019-02-08T04:02:49.658Z,80.52
2019-02-08T04:05:45.315Z,80.27
2019-02-08T04:08:18.080Z,80.46
2019-02-08T04:11:00.765Z,80.44
2019-02-08T04:13:30.724Z,80.51
2019-02-08T04:16:01.497Z,80.60
2019-02-08T04:18:31.286Z,80.63
2019-02-08T04:21:01.069Z,80.39
2019-02-08T04:23:30.882Z,80.62
2019-02-08T04:26:00.820Z,80.95
2019-02-08T04:28:30.808Z,80.96
2019-02-08T04:31:00.746Z,80.96
2019-02-08T04:33:30.643Z,80.99
2019-02-08T04:36:01.213Z,81.14
2019-02-08T04:38:32.040Z,80.96
2019-02-08T04:41:01.780Z,80.96
2019-02-08T04:43:31.565Z,80.97
2019-02-08T04:46:01.275Z,80.94
2019-02-08T04:48:31.049Z,80.56
2019-02-08T04:51:00.803Z,80.24
2019-02-08T04:53:30.631Z,80.27
2019-02-08T04:56:00.412Z,80.36
2019-02-08T04:58:35.494Z,80.40
2019-02-08T05:01:01.893Z,80.63
2019-02-08T05:03:31.673Z,80.78
2019-02-08T05:06:01.450Z,80.94
2019-02-08T05:08:31.849Z,80.72
2019-02-08T05:11:01.604Z,80.75
2019-02-08T05:13:31.358Z,80.76
2019-02-08T05:16:01.155Z,80.42
2019-02-08T05:18:30.933Z,80.99
2019-02-08T05:21:01.862Z,81.11
2019-02-08T05:23:31.656Z,80.90
2019-02-08T05:26:02.941Z,81.15
2019-02-08T05:28:32.670Z,81.39
2019-02-08T05:31:02.456Z,81.21
2019-02-08T05:33:32.218Z,80.48
2019-02-08T05:36:02.059Z,80.87
2019-02-08T05:38:32.042Z,80.88
2019-02-08T05:41:01.833Z,80.83
2019-02-08T05:43:31.713Z,80.84
2019-02-08T05:46:01.494Z,81.50
2019-02-08T05:48:31.320Z,81.90
2019-02-08T05:51:00.992Z,81.90
2019-02-08T05:53:30.926Z,81.52
2019-02-08T05:56:00.673Z,81.59
2019-02-08T05:58:30.514Z,81.41
2019-02-08T06:01:00.306Z,81.07
2019-02-08T06:03:30.134Z,81.09
2019-02-08T06:05:59.899Z,81.33
2019-02-08T06:08:29.649Z,81.22
2019-02-08T06:10:59.353Z,81.40
2019-02-08T06:13:29.031Z,81.47
2019-02-08T06:15:58.844Z,81.42
2019-02-08T06:18:28.622Z,80.97
2019-02-08T06:20:58.417Z,80.66
2019-02-08T06:23:28.205Z,80.73
2019-02-08T06:25:58.005Z,81.27
2019-02-08T06:28:27.818Z,81.71
2019-02-08T06:30:57.582Z,81.66
2019-02-08T06:33:27.379Z,87.99
2019-02-08T06:35:57.165Z,81.58
2019-02-08T06:38:26.910Z,80.99
2019-02-08T06:40:56.694Z,72.74
2019-02-08T06:43:27.209Z,72.74
2019-02-08T06:45:57.012Z,68.23
2019-02-08T06:48:26.768Z,66.92
2019-02-08T06:50:57.174Z,65.52
2019-02-08T06:53:26.930Z,64.43
2019-02-08T06:55:56.723Z,67.59
2019-02-08T06:58:28.072Z,70.87
2019-02-08T07:00:59.436Z,72.97
2019-02-08T07:03:30.796Z,74.49
2019-02-08T07:06:05.403Z,75.06
2019-02-08T07:08:46.050Z,75.56
2019-02-08T07:11:20.550Z,76.82
2019-02-08T07:14:09.738Z,77.59
2019-02-08T07:16:57.468Z,78.08
2019-02-08T07:19:28.844Z,78.08
2019-02-08T07:22:24.381Z,78.37
2019-02-08T07:25:05.035Z,78.37
2019-02-08T07:27:45.199Z,78.12
2019-02-08T07:30:24.685Z,78.02
2019-02-08T07:33:04.493Z,78.02
2019-02-08T07:35:36.327Z,77.96
2019-02-08T07:38:08.314Z,77.46
2019-02-08T07:40:59.891Z,76.62
2019-02-08T07:43:41.881Z,76.62
2019-02-08T07:46:15.114Z,76.13
2019-02-08T07:49:03.295Z,76.11
2019-02-08T07:51:43.753Z,76.11
2019-02-08T07:54:31.873Z,76.39
2019-02-08T07:57:06.182Z,76.36
2019-02-08T07:59:40.474Z,76.87
2019-02-08T08:02:11.872Z,76.87
2019-02-08T08:04:43.226Z,76.17
2019-02-08T08:07:15.096Z,76.16
2019-02-08T08:09:46.609Z,75.90
2019-02-08T08:12:27.196Z,75.87
2019-02-08T08:14:59.052Z,75.74
2019-02-08T08:17:47.765Z,75.46
2019-02-08T08:20:38.746Z,75.85
2019-02-08T08:23:26.388Z,75.54
2019-02-08T08:26:10.457Z,75.53
2019-02-08T08:28:44.452Z,76.26
2019-02-08T08:31:26.965Z,76.79
2019-02-08T08:34:02.394Z,76.79
2019-02-08T08:36:59.277Z,77.04
2019-02-08T08:40:02.700Z,76.97
2019-02-08T08:43:01.302Z,76.93
2019-02-08T08:45:37.014Z,76.24
2019-02-08T08:48:27.014Z,75.02
2019-02-08T08:51:18.444Z,74.47
2019-02-08T08:54:25.948Z,73.92
2019-02-08T08:57:18.303Z,73.54
2019-02-08T08:59:54.334Z,72.65
2019-02-08T09:02:44.392Z,72.65
2019-02-08T09:05:35.607Z,71.97
2019-02-08T09:08:17.084Z,71.86
2019-02-08T09:10:56.120Z,71.77
2019-02-08T09:13:49.901Z,71.64
2019-02-08T09:16:28.323Z,70.67
2019-02-08T09:19:08.125Z,70.53
2019-02-08T09:21:48.423Z,70.49
2019-02-08T09:24:43.552Z,68.91
2019-02-08T09:27:28.433Z,67.72
2019-02-08T09:30:01.293Z,66.49
2019-02-08T09:32:50.388Z,64.62
2019-02-08T09:35:45.894Z,63.56
2019-02-08T09:38:46.915Z,62.93
2019-02-08T09:41:42.001Z,62.16
2019-02-08T09:44:31.640Z,61.43
2019-02-08T09:47:22.654Z,61.52
2019-02-08T09:50:04.618Z,59.90
2019-02-08T09:53:10.826Z,59.96
2019-02-08T09:55:57.897Z,59.64
2019-02-08T09:58:45.376Z,58.29
2019-02-08T10:01:51.693Z,58.03
2019-02-08T10:04:33.462Z,58.17
2019-02-08T10:07:33.803Z,57.38
2019-02-08T10:10:07.064Z,57.25
2019-02-08T10:13:06.146Z,56.43
2019-02-08T10:15:55.756Z,56.47
2019-02-08T10:18:48.711Z,55.45
2019-02-08T10:21:24.118Z,58.34
2019-02-08T10:24:02.442Z,57.12
2019-02-08T10:26:37.755Z,53.96
2019-02-08T10:29:18.276Z,53.65
2019-02-08T10:32:07.692Z,53.38
2019-02-08T10:34:40.861Z,53.26
2019-02-08T10:37:16.707Z,53.29
2019-02-08T10:39:58.396Z,53.86
2019-02-08T10:42:50.238Z,54.39
2019-02-08T10:45:43.396Z,54.36
2019-02-08T10:48:28.262Z,52.45
2019-02-08T10:51:30.239Z,53.58
2019-02-08T10:54:14.728Z,55.18
2019-02-08T10:57:14.867Z,54.20
2019-02-08T11:00:02.078Z,53.93
2019-02-08T11:03:01.012Z,55.21
2019-02-08T11:06:05.618Z,55.22
2019-02-08T11:08:50.548Z,54.68
2019-02-08T11:11:57.355Z,54.76
2019-02-08T11:14:30.354Z,54.04
2019-02-08T11:17:20.387Z,53.58
2019-02-08T11:19:55.376Z,53.24
2019-02-08T11:22:27.018Z,52.48
2019-02-08T11:24:56.915Z,52.65
2019-02-08T11:27:26.723Z,52.87
2019-02-08T11:29:57.575Z,53.47
2019-02-08T11:32:42.486Z,53.35
2019-02-08T11:34:59.985Z,53.49
2019-02-08T11:37:30.253Z,53.38
2019-02-08T11:40:00.224Z,53.00
2019-02-08T11:42:32.056Z,53.69
2019-02-08T11:45:01.918Z,54.18
2019-02-08T11:47:32.248Z,54.18
2019-02-08T11:50:02.798Z,54.10
2019-02-08T11:52:32.602Z,53.00
2019-02-08T11:55:02.343Z,53.28
2019-02-08T11:57:34.380Z,53.89
2019-02-08T12:00:07.399Z,53.92
2019-02-08T12:02:40.559Z,52.85
2019-02-08T12:05:09.169Z,51.74
2019-02-08T12:07:38.948Z,51.32
2019-02-08T12:10:10.237Z,50.91
2019-02-08T12:12:41.103Z,50.45
2019-02-08T12:15:16.908Z,50.64
2019-02-08T12:17:49.379Z,51.58
2019-02-08T12:20:19.169Z,52.46
2019-02-08T12:22:49.441Z,52.35
2019-02-08T12:25:19.295Z,51.60
2019-02-08T12:27:49.740Z,51.18
2019-02-08T12:30:28.467Z,50.13
2019-02-08T12:32:59.075Z,49.81
2019-02-08T12:35:30.002Z,49.71
2019-02-08T12:38:00.019Z,49.70
2019-02-08T12:40:30.623Z,49.88
2019-02-08T12:43:00.438Z,49.42
2019-02-08T12:45:30.266Z,50.20
2019-02-08T12:48:01.346Z,49.79
2019-02-08T12:50:31.232Z,49.93
2019-02-08T12:53:01.897Z,50.71
2019-02-08T12:55:31.714Z,51.16
2019-02-08T12:58:02.331Z,51.37
2019-02-08T13:00:32.112Z,51.55
2019-02-08T13:03:01.714Z,51.45
2019-02-08T13:05:31.501Z,51.46
2019-02-08T13:08:01.272Z,52.01
2019-02-08T13:10:31.474Z,52.28
2019-02-08T13:13:01.413Z,52.13
2019-02-08T13:15:31.872Z,52.32
2019-02-08T13:18:02.477Z,52.41
2019-02-08T13:20:33.831Z,52.53
2019-02-08T13:23:03.631Z,53.58
2019-02-08T13:25:33.450Z,54.19
2019-02-08T13:28:03.416Z,52.91
2019-02-08T13:30:37.472Z,52.97
2019-02-08T13:33:08.196Z,52.36
2019-02-08T13:35:39.130Z,52.27
2019-02-08T13:38:09.132Z,52.14
2019-02-08T13:40:39.503Z,55.09
2019-02-08T13:43:09.455Z,54.54
2019-02-08T13:45:39.390Z,53.43
2019-02-08T13:48:09.300Z,53.36
2019-02-08T13:50:39.626Z,53.54
2019-02-08T13:53:11.832Z,54.23
2019-02-08T13:55:41.617Z,54.47
2019-02-08T13:58:11.456Z,54.46
2019-02-08T14:00:41.820Z,54.48
2019-02-08T14:03:11.626Z,54.52
2019-02-08T14:05:41.553Z,54.42
2019-02-08T14:08:11.341Z,54.50
2019-02-08T14:10:41.218Z,54.98
2019-02-08T14:13:10.959Z,55.02
2019-02-08T14:15:40.724Z,55.42
2019-02-08T14:18:10.505Z,54.90
2019-02-08T14:20:41.081Z,55.04
2019-02-08T14:23:10.795Z,54.86
2019-02-08T14:25:40.571Z,54.69
2019-02-08T14:28:10.347Z,55.31
2019-02-08T14:30:42.242Z,55.71
2019-02-08T14:33:12.013Z,56.00
2019-02-08T14:35:41.802Z,56.09
2019-02-08T14:38:14.612Z,56.47
2019-02-08T14:40:44.366Z,56.87
2019-02-08T14:43:14.137Z,56.86
2019-02-08T14:45:44.882Z,57.08
2019-02-08T14:48:15.735Z,57.41
2019-02-08T14:50:46.313Z,57.45
2019-02-08T14:53:17.151Z,57.64
2019-02-08T14:55:47.973Z,58.09
2019-02-08T14:58:18.058Z,58.05
2019-02-08T15:00:49.336Z,57.89
2019-02-08T15:03:20.816Z,57.69
2019-02-08T15:05:50.545Z,57.43
2019-02-08T15:08:21.006Z,57.26
2019-02-08T15:10:52.500Z,57.20
2019-02-08T15:13:22.163Z,58.90
2019-02-08T15:15:51.985Z,57.33
2019-02-08T15:18:21.819Z,57.22
2019-02-08T15:20:51.624Z,57.44
2019-02-08T15:23:21.311Z,59.04
2019-02-08T15:25:51.112Z,57.85
2019-02-08T15:28:21.087Z,58.08
2019-02-08T15:30:50.872Z,58.36
2019-02-08T15:33:20.585Z,58.69
2019-02-08T15:35:50.279Z,59.08
2019-02-08T15:38:20.126Z,59.37
2019-02-08T15:40:52.357Z,59.65
2019-02-08T15:43:22.721Z,60.28
2019-02-08T15:45:57.903Z,60.50
2019-02-08T15:48:27.728Z,60.78
2019-02-08T15:50:59.201Z,61.01
2019-02-08T15:53:29.003Z,61.31
2019-02-08T15:56:10.496Z,61.77
2019-02-08T15:58:40.368Z,62.20
2019-02-08T16:01:10.515Z,62.63
2019-02-08T16:03:40.332Z,63.05
2019-02-08T16:06:10.417Z,63.38
2019-02-08T16:08:40.409Z,63.75
2019-02-08T16:11:10.254Z,64.12
2019-02-08T16:13:40.242Z,64.49
2019-02-08T16:16:10.375Z,64.83
2019-02-08T16:18:40.446Z,65.16
2019-02-08T16:21:10.373Z,65.47
2019-02-08T16:23:40.217Z,65.86
2019-02-08T16:26:10.033Z,66.20
2019-02-08T16:28:39.839Z,66.43
2019-02-08T16:31:09.725Z,66.55
2019-02-08T16:33:39.542Z,66.78
2019-02-08T16:36:09.480Z,67.00
2019-02-08T16:38:39.402Z,67.23
2019-02-08T16:41:09.292Z,67.67
2019-02-08T16:43:39.374Z,67.99
2019-02-08T16:46:09.399Z,68.05
2019-02-08T16:48:39.165Z,68.21
2019-02-08T16:51:08.943Z,68.45
2019-02-08T16:53:38.650Z,68.48
2019-02-08T16:56:09.385Z,68.37
2019-02-08T16:58:39.206Z,68.77
2019-02-08T17:01:09.080Z,69.11
2019-02-08T17:03:38.901Z,69.17
2019-02-08T17:06:08.690Z,69.45
2019-02-08T17:08:38.531Z,70.08
2019-02-08T17:11:08.316Z,70.77
2019-02-08T17:13:38.183Z,71.03
2019-02-08T17:16:08.112Z,71.06
2019-02-08T17:18:39.052Z,70.86
2019-02-08T17:21:08.928Z,71.32
2019-02-08T17:23:38.688Z,71.20
2019-02-08T17:26:08.533Z,71.50
2019-02-08T17:28:38.343Z,71.30
2019-02-08T17:31:08.112Z,72.90
2019-02-08T17:33:38.066Z,71.09
2019-02-08T17:36:07.946Z,67.51
2019-02-08T17:38:37.948Z,68.69
2019-02-08T17:41:08.083Z,70.01
2019-02-08T17:43:38.002Z,70.62
2019-02-08T17:46:08.171Z,71.25
2019-02-08T17:48:37.960Z,70.93
2019-02-08T17:51:07.771Z,72.08
2019-02-08T17:53:37.583Z,72.82
2019-02-08T17:56:09.111Z,72.78
2019-02-08T17:58:38.912Z,72.43
2019-02-08T18:01:08.820Z,73.16
2019-02-08T18:03:38.667Z,73.17
2019-02-08T18:06:08.534Z,73.61
2019-02-08T18:08:38.390Z,73.90
2019-02-08T18:11:08.124Z,73.73
2019-02-08T18:13:37.956Z,73.74
2019-02-08T18:16:07.815Z,72.73
2019-02-08T18:18:37.562Z,73.08
2019-02-08T18:21:07.465Z,73.29
2019-02-08T18:23:37.335Z,73.12
2019-02-08T18:26:07.274Z,73.60
2019-02-08T18:28:37.072Z,73.95
2019-02-08T18:31:06.851Z,73.36
2019-02-08T18:33:36.702Z,73.42
2019-02-08T18:36:06.622Z,73.00
2019-02-08T18:38:36.428Z,72.50
2019-02-08T18:41:06.182Z,72.39
2019-02-08T18:43:35.973Z,72.86
2019-02-08T18:46:05.973Z,73.64
2019-02-08T18:48:35.781Z,74.28
2019-02-08T18:51:05.629Z,73.97
2019-02-08T18:53:35.433Z,74.06
2019-02-08T18:56:05.351Z,78.26
2019-02-08T18:58:35.178Z,72.43
2019-02-08T19:01:06.072Z,72.99
2019-02-08T19:03:36.057Z,72.99
2019-02-08T19:06:06.010Z,73.45
2019-02-08T19:08:35.818Z,73.85
2019-02-08T19:11:05.676Z,74.95
2019-02-08T19:13:35.600Z,75.69
2019-02-08T19:16:05.507Z,75.69
2019-02-08T19:18:35.324Z,75.47
2019-02-08T19:21:05.153Z,75.31
2019-02-08T19:23:35.116Z,75.78
2019-02-08T19:26:05.514Z,75.93
2019-02-08T19:28:37.088Z,76.65
2019-02-08T19:31:06.882Z,76.65
2019-02-08T19:33:36.678Z,76.77
2019-02-08T19:36:06.655Z,77.03
2019-02-08T19:38:36.648Z,77.07
2019-02-08T19:41:06.388Z,77.03
2019-02-08T19:43:36.247Z,77.13
2019-02-08T19:46:06.183Z,78.10
2019-02-08T19:48:36.119Z,78.46
2019-02-08T19:51:05.989Z,78.25
2019-02-08T19:53:35.748Z,77.65
2019-02-08T19:56:05.859Z,77.50
2019-02-08T19:58:35.692Z,77.39
2019-02-08T20:01:06.160Z,77.20
2019-02-08T20:03:35.967Z,77.25
2019-02-08T20:06:05.884Z,77.25
2019-02-08T20:08:35.699Z,77.94
2019-02-08T20:11:05.601Z,78.00
2019-02-08T20:13:35.547Z,77.33
2019-02-08T20:16:05.324Z,77.33
2019-02-08T20:18:35.143Z,77.66
2019-02-08T20:21:05.379Z,78.28
2019-02-08T20:23:35.237Z,78.40
2019-02-08T20:26:05.293Z,78.63
2019-02-08T20:28:42.118Z,79.33
2019-02-08T20:31:07.907Z,79.58
2019-02-08T20:33:37.724Z,79.64
2019-02-08T20:36:07.547Z,79.64
2019-02-08T20:38:37.334Z,79.88
2019-02-08T20:41:07.136Z,79.58
2019-02-08T20:43:36.904Z,79.58
2019-02-08T20:46:06.678Z,80.61
2019-02-08T20:48:36.504Z,80.61
2019-02-08T20:51:06.332Z,80.70
2019-02-08T20:53:36.307Z,80.78
2019-02-08T20:56:06.145Z,81.05
2019-02-08T20:58:36.563Z,80.33
2019-02-08T21:01:07.022Z,80.33
2019-02-08T21:03:36.887Z,80.34
2019-02-08T21:06:06.672Z,80.34
2019-02-08T21:08:36.574Z,81.26
2019-02-08T21:11:06.398Z,81.39
2019-02-08T21:13:36.282Z,80.59
2019-02-08T21:16:06.202Z,81.26
2019-02-08T21:18:35.983Z,81.26
2019-02-08T21:21:05.982Z,81.45
2019-02-08T21:23:35.829Z,81.60
2019-02-08T21:26:05.683Z,81.45
2019-02-08T21:28:35.558Z,81.59
2019-02-08T21:31:05.443Z,81.67
2019-02-08T21:33:35.227Z,81.67
2019-02-08T21:36:05.555Z,81.55
2019-02-08T21:38:35.393Z,81.33
2019-02-08T21:41:05.812Z,81.33
2019-02-08T21:43:36.602Z,81.56
2019-02-08T21:46:06.416Z,81.56
2019-02-08T21:48:37.928Z,81.96
2019-02-08T21:51:07.718Z,81.96
2019-02-08T21:53:39.244Z,81.75
2019-02-08T21:56:09.167Z,82.13
2019-02-08T21:58:38.981Z,82.07
2019-02-08T22:01:08.894Z,81.01
2019-02-08T22:03:38.772Z,80.93
2019-02-08T22:06:08.677Z,81.01
2019-02-08T22:08:38.483Z,81.01
2019-02-08T22:11:08.903Z,81.34
2019-02-08T22:13:38.755Z,81.81
2019-02-08T22:16:08.581Z,81.86
2019-02-08T22:18:38.477Z,81.61
2019-02-08T22:21:08.358Z,80.73
2019-02-08T22:23:38.479Z,80.73
2019-02-08T22:26:08.249Z,80.56
2019-02-08T22:28:38.042Z,81.55
2019-02-08T22:31:07.722Z,81.36
2019-02-08T22:33:37.494Z,81.66
2019-02-08T22:36:29.133Z,79.77
2019-02-08T22:38:58.897Z,79.77
2019-02-08T22:41:28.674Z,80.29
2019-02-08T22:44:02.823Z,80.74
2019-02-08T22:46:32.587Z,81.61
2019-02-08T22:49:02.672Z,81.61
2019-02-08T22:51:32.462Z,81.54
2019-02-08T22:54:02.229Z,81.55
2019-02-08T22:56:32.127Z,81.55
2019-02-08T22:59:01.944Z,82.35
2019-02-08T23:01:36.417Z,82.19
2019-02-08T23:04:08.172Z,81.83
2019-02-08T23:06:44.591Z,81.73
2019-02-08T23:09:14.011Z,82.22
2019-02-08T23:11:43.819Z,82.45
2019-02-08T23:14:13.813Z,82.37
2019-02-08T23:16:43.574Z,82.42
2019-02-08T23:19:13.376Z,82.25
2019-02-08T23:21:43.172Z,82.10
2019-02-08T23:24:14.136Z,80.79
2019-02-08T23:26:49.678Z,80.47
2019-02-08T23:29:19.711Z,80.47
2019-02-08T23:31:50.516Z,82.24
2019-02-08T23:34:23.231Z,81.60
2019-02-08T23:36:52.995Z,81.60
2019-02-08T23:39:22.773Z,81.13
2019-02-08T23:41:52.590Z,80.64
2019-02-08T23:44:22.349Z,80.27
2019-02-08T23:46:52.147Z,79.88
2019-02-08T23:49:21.909Z,80.87
2019-02-08T23:51:52.217Z,81.48
2019-02-08T23:54:22.036Z,81.13
2019-02-08T23:56:51.835Z,81.27
2019-02-08T23:59:21.618Z,82.03
